Terminal Aerodrome Forecast
Issued by NWS Sterling, VA

Current Version | Previous Version | Graphics & Text | Print | Product List | Glossary On
Versions: 1 2 3 4 5 6 7 8 9 10 11 12 13 14 15 16 17
000
FTUS41 KLWX 280530
TAFMRB
TAF
KMRB 280530Z 2806/2906 17005KT P6SM SKC
      TEMPO 2810/2813 5SM BR
     FM281300 00000KT P6SM SCT090
     FM281800 17006KT P6SM SCT060=

USA.gov is the U.S. government's official web portal to all federal, state and local government web resources and services.